createdAt,value
2023-01-02T00:09:34.443Z,6.80
2023-01-02T00:19:41.512Z,7.20
2023-01-02T00:29:48.835Z,6.00
2023-01-02T00:39:56.127Z,6.90
2023-01-02T00:50:03.133Z,7.80
2023-01-02T01:00:12.194Z,7.20
2023-01-02T01:10:22.594Z,6.30
2023-01-02T01:20:30.319Z,5.00
2023-01-02T01:30:37.352Z,6.50
2023-01-02T01:40:44.598Z,7.10
2023-01-02T01:50:51.519Z,5.70
2023-01-02T02:00:59.864Z,6.30
2023-01-02T02:11:06.329Z,6.10
2023-01-02T02:21:13.286Z,5.90
2023-01-02T02:31:19.415Z,6.80
2023-01-02T02:41:28.596Z,8.50
2023-01-02T02:51:44.265Z,9.80
2023-01-02T03:01:51.706Z,11.50
2023-01-02T03:12:12.293Z,11.80
2023-01-02T03:22:24.815Z,13.00
2023-01-02T03:32:35.052Z,12.30
2023-01-02T03:42:47.714Z,9.90
2023-01-02T03:52:55.421Z,10.80
2023-01-02T04:03:09.455Z,11.40
2023-01-02T04:13:20.385Z,10.20
2023-01-02T04:23:33.539Z,9.70
2023-01-02T04:33:38.664Z,6.10
2023-01-02T04:43:45.963Z,6.10
2023-01-02T04:53:54.368Z,7.70
2023-01-02T05:04:01.613Z,7.30
2023-01-02T05:14:08.893Z,6.90
2023-01-02T05:24:16.089Z,6.60
2023-01-02T05:34:23.133Z,6.10
2023-01-02T05:44:30.132Z,6.80
2023-01-02T05:54:37.422Z,7.20
2023-01-02T06:04:44.626Z,13.70
2023-01-02T06:14:52.036Z,14.50
2023-01-02T06:24:59.165Z,14.50
2023-01-02T06:35:05.767Z,12.10
2023-01-02T06:45:13.092Z,13.60
2023-01-02T06:55:19.223Z,14.60
2023-01-02T07:05:26.246Z,12.10
2023-01-02T07:15:33.099Z,10.40
2023-01-02T07:25:44.407Z,10.10
2023-01-02T07:35:52.293Z,10.20
2023-01-02T07:46:03.557Z,9.50
2023-01-02T07:56:11.250Z,9.50
2023-01-02T08:06:19.249Z,11.20
2023-01-02T08:16:26.681Z,8.40
2023-01-02T08:26:33.807Z,7.00
2023-01-02T08:36:40.954Z,9.10
2023-01-02T08:46:48.156Z,6.20
2023-01-02T08:56:55.594Z,5.50
2023-01-02T09:07:03.007Z,7.10
2023-01-02T09:17:10.629Z,6.30
2023-01-02T09:27:17.886Z,5.50
2023-01-02T09:37:25.104Z,6.10
2023-01-02T09:47:33.089Z,5.30
2023-01-02T09:57:39.301Z,6.50
2023-01-02T10:07:48.546Z,5.50
2023-01-02T10:18:00.309Z,5.60
2023-01-02T10:28:08.492Z,5.40
2023-01-02T10:38:13.347Z,5.30
2023-01-02T10:48:21.722Z,4.50
2023-01-02T10:58:30.814Z,5.40
2023-01-02T11:08:38.970Z,5.90
2023-01-02T11:18:54.350Z,5.20
2023-01-02T11:29:09.212Z,7.10
2023-01-02T11:39:21.345Z,5.40
2023-01-02T11:49:26.127Z,5.20
2023-01-02T11:59:38.138Z,5.80
2023-01-02T12:09:45.949Z,6.70
2023-01-02T12:20:07.218Z,5.80
2023-01-02T12:30:12.416Z,5.20
2023-01-02T12:40:35.299Z,5.30
2023-01-02T12:50:53.231Z,4.50
2023-01-02T13:01:01.886Z,4.00
2023-01-02T13:11:07.274Z,4.70
2023-01-02T13:21:13.487Z,4.50
2023-01-02T13:31:46.606Z,4.80
2023-01-02T13:42:08.971Z,4.40
2023-01-02T13:52:17.368Z,4.60
2023-01-02T14:02:24.670Z,4.70
2023-01-02T14:22:51.559Z,6.10
2023-01-02T14:33:03.821Z,6.80
2023-01-02T14:43:27.958Z,5.60
2023-01-02T14:53:38.744Z,8.10
2023-01-02T15:03:43.975Z,9.70
2023-01-02T15:14:05.154Z,11.40
2023-01-02T15:24:18.181Z,13.00
2023-01-02T15:34:26.471Z,11.50
2023-01-02T15:44:53.156Z,14.60
2023-01-02T15:55:00.635Z,13.90
2023-01-02T16:05:12.381Z,16.10
2023-01-02T16:15:23.296Z,12.90
2023-01-02T16:25:33.063Z,11.70
2023-01-02T16:35:40.197Z,12.10
2023-01-02T16:55:56.415Z,16.40
2023-01-02T17:06:07.832Z,18.10
2023-01-02T17:16:14.410Z,15.60
2023-01-02T17:26:21.633Z,13.80
2023-01-02T17:36:29.331Z,13.70
2023-01-02T17:57:04.514Z,18.00
2023-01-02T18:07:12.190Z,18.40
2023-01-02T18:17:24.367Z,18.70
2023-01-02T18:27:37.333Z,21.10
2023-01-02T18:37:45.005Z,23.70
2023-01-02T18:47:55.351Z,21.20
2023-01-02T18:58:00.086Z,22.60
2023-01-02T19:08:14.731Z,22.10
2023-01-02T19:18:33.808Z,24.90
2023-01-02T19:28:43.067Z,22.90
2023-01-02T19:38:51.338Z,22.00
2023-01-02T19:48:59.285Z,20.90
2023-01-02T19:59:09.485Z,24.80
2023-01-02T20:09:22.214Z,22.50
2023-01-02T20:29:35.296Z,19.30
2023-01-02T20:39:42.627Z,24.30
2023-01-02T20:49:49.980Z,18.20
2023-01-02T20:59:57.385Z,16.50
2023-01-02T21:10:05.073Z,19.50
2023-01-02T21:20:10.934Z,17.70
2023-01-02T21:30:18.612Z,17.90
2023-01-02T21:40:25.794Z,18.90
2023-01-02T21:50:31.602Z,15.70
2023-01-02T22:00:38.890Z,13.40
2023-01-02T22:10:46.278Z,16.00
2023-01-02T22:20:52.388Z,12.70
2023-01-02T22:31:00.676Z,12.80
2023-01-02T22:41:06.798Z,12.70
2023-01-02T22:51:18.417Z,11.70
2023-01-02T23:01:25.075Z,12.60
2023-01-02T23:11:32.260Z,11.00
2023-01-02T23:21:40.698Z,9.70
2023-01-02T23:31:49.583Z,9.50
2023-01-02T23:41:57.393Z,10.30
2023-01-02T23:52:04.724Z,9.60
